Time;durP1;ratioP1;P1;durP2;ratioP2;P2;SDS_P1;SDS_P2;PMS_P1;PMS_P2;Temp;Humidity;BMP_temperature;BMP_pressure;BME280_temperature;BME280_humidity;BME280_pressure;Samples;Min_cycle;Max_cycle;Signal;HPM_P1;HPM_P2
2022/01/06 00:03:31;;;;;;;7.30;3.80;;;;;;;2.01;82.32;98328.33;207174;1317;139943;-66
2022/01/06 00:08:35;;;;;;;6.90;4.40;;;;;;;1.98;82.20;98324.83;208323;1316;139647;-68
2022/01/06 00:13:59;;;;;;;6.50;4.30;;;;;;;1.97;82.44;98327.14;207171;1317;139714;-70
2022/01/06 00:24:09;;;;;;;5.70;3.00;;;;;;;1.94;82.60;98324.25;208231;1316;140153;-72
2022/01/06 00:29:19;;;;;;;4.60;3.50;;;;;;;1.92;82.65;98319.61;208229;1316;139866;-70
2022/01/06 00:34:29;;;;;;;6.90;3.40;;;;;;;1.90;82.47;98315.66;208814;1316;144304;-69
2022/01/06 00:39:33;;;;;;;8.40;3.80;;;;;;;1.88;82.76;98315.80;209626;1316;140715;-74
2022/01/06 00:44:36;;;;;;;7.60;4.60;;;;;;;1.87;82.69;98324.13;209062;1316;140321;-76
2022/01/06 00:49:38;;;;;;;4.50;2.70;;;;;;;1.87;82.53;98334.08;208988;1316;139602;-73
2022/01/06 00:54:41;;;;;;;15.50;6.40;;;;;;;1.80;82.75;98342.07;208084;1319;140178;-76
2022/01/06 00:59:47;;;;;;;20.90;7.10;;;;;;;1.76;82.71;98346.17;207370;1316;141086;-69
2022/01/06 01:04:51;;;;;;;39.90;15.90;;;;;;;1.77;82.75;98352.67;207046;1316;141604;-69
2022/01/06 01:09:54;;;;;;;16.30;6.60;;;;;;;1.76;83.47;98352.27;207771;1317;141098;-72
2022/01/06 01:15:06;;;;;;;9.70;7.90;;;;;;;1.83;83.32;98351.86;207346;1315;140582;-73
2022/01/06 01:20:12;;;;;;;8.00;5.60;;;;;;;1.93;83.47;98354.09;207859;1317;230687;-73
2022/01/06 01:25:18;;;;;;;6.60;5.50;;;;;;;1.96;83.36;98352.70;207752;1315;140260;-76
2022/01/06 01:30:42;;;;;;;;;;;;;;;;;;;;;
2022/01/06 01:35:47;;;;;;;5.70;3.20;;;;;;;2.01;83.63;98355.25;206858;1318;139696;-70
2022/01/06 01:40:49;;;;;;;7.90;6.60;;;;;;;2.01;83.51;98356.79;207623;1318;140898;-72
2022/01/06 01:46:08;;;;;;;4.70;4.20;;;;;;;2.06;83.58;98362.34;207315;1316;140118;-70
2022/01/06 01:51:12;;;;;;;7.30;3.60;;;;;;;2.14;83.71;98366.96;207729;1318;141173;-70
2022/01/06 01:56:19;;;;;;;4.60;3.60;;;;;;;2.16;83.63;98379.11;208323;1317;141348;-70
2022/01/06 02:01:22;;;;;;;6.30;3.60;;;;;;;2.20;83.63;98381.98;206951;1316;140566;-67
2022/01/06 02:06:26;;;;;;;5.20;4.00;;;;;;;2.27;83.43;98383.73;207672;1316;139416;-74
2022/01/06 02:11:33;;;;;;;11.90;3.30;;;;;;;2.31;83.55;98385.08;207266;1316;139544;-69
2022/01/06 02:16:42;;;;;;;11.30;5.20;;;;;;;2.33;83.43;98379.88;208216;1315;139509;-68
2022/01/06 02:21:46;;;;;;;4.80;2.70;;;;;;;2.36;83.33;98381.73;207457;1315;140604;-67
2022/01/06 02:26:49;;;;;;;2.50;2.30;;;;;;;2.43;83.48;98384.67;207911;1318;140777;-71
2022/01/06 02:31:53;;;;;;;4.10;3.10;;;;;;;2.45;83.61;98380.98;206972;1318;140156;-69
2022/01/06 02:37:06;;;;;;;10.70;3.70;;;;;;;2.45;83.61;98381.19;208703;1317;141887;-68
2022/01/06 02:42:11;;;;;;;5.60;3.60;;;;;;;2.48;83.32;98390.02;208587;1317;140367;-70
2022/01/06 02:47:15;;;;;;;3.00;2.80;;;;;;;2.47;83.44;98388.65;208923;1317;140703;-71
2022/01/06 02:52:18;;;;;;;6.50;3.10;;;;;;;2.45;83.44;98386.14;209482;1316;142068;-68
2022/01/06 02:57:39;;;;;;;3.40;3.00;;;;;;;2.47;83.43;98395.09;207845;1319;140331;-70
2022/01/06 03:02:46;;;;;;;7.90;3.90;;;;;;;2.46;83.08;98396.95;207892;1316;140447;-70
2022/01/06 03:07:50;;;;;;;4.00;2.80;;;;;;;2.44;83.38;98402.12;207169;1318;141175;-68
2022/01/06 03:12:59;;;;;;;3.50;2.50;;;;;;;2.45;83.30;98405.98;206889;1318;139779;-70
2022/01/06 03:18:04;;;;;;;6.20;4.20;;;;;;;2.44;83.39;98415.31;207659;1318;139856;-69
2022/01/06 03:23:08;;;;;;;8.20;3.70;;;;;;;2.44;83.37;98424.63;207024;1318;141496;-69
2022/01/06 03:28:13;;;;;;;10.00;6.20;;;;;;;2.48;83.39;98431.58;207596;1315;141709;-71
2022/01/06 03:33:20;;;;;;;3.10;2.60;;;;;;;2.51;83.58;98442.92;207337;1316;140920;-69
2022/01/06 03:38:27;;;;;;;6.10;4.30;;;;;;;2.50;83.49;98450.95;206905;1316;140044;-68
2022/01/06 03:43:31;;;;;;;3.50;3.20;;;;;;;2.54;83.30;98455.09;207770;1317;141144;-69
2022/01/06 03:48:41;;;;;;;2.40;2.20;;;;;;;2.54;83.21;98460.96;207597;1315;139233;-69
2022/01/06 03:53:52;;;;;;;60.90;30.30;;;;;;;2.55;83.34;98460.38;207791;1316;141054;-68
2022/01/06 03:58:58;;;;;;;7.00;5.50;;;;;;;2.62;83.28;98456.66;208356;1316;139802;-68
2022/01/06 04:04:21;;;;;;;6.20;4.50;;;;;;;2.61;82.90;98458.68;207490;1318;141950;-68
2022/01/06 04:09:24;;;;;;;7.50;5.60;;;;;;;2.61;83.09;98463.14;207447;1316;140357;-69
2022/01/06 04:14:28;;;;;;;4.40;4.00;;;;;;;2.61;82.66;98464.59;208040;1318;140420;-69
2022/01/06 04:19:31;;;;;;;4.90;4.60;;;;;;;2.61;82.63;98460.52;207299;1316;140495;-70
2022/01/06 04:24:34;;;;;;;3.20;2.80;;;;;;;2.55;82.56;98468.52;207192;1316;141175;-70
2022/01/06 04:29:42;;;;;;;5.50;3.30;;;;;;;2.49;82.67;98468.44;207727;1315;140608;-67
2022/01/06 04:34:48;;;;;;;4.10;3.80;;;;;;;2.46;82.60;98471.73;206791;1318;140900;-67
2022/01/06 04:39:51;;;;;;;10.30;3.70;;;;;;;2.45;82.73;98479.88;208651;1318;141881;-69
2022/01/06 04:44:53;;;;;;;3.70;3.40;;;;;;;2.48;82.88;98488.27;208982;1318;140462;-68
2022/01/06 04:50:15;;;;;;;4.40;4.10;;;;;;;2.46;82.68;98492.56;208351;1318;140774;-76
2022/01/06 04:56:02;;;;;;;6.00;3.50;;;;;;;2.45;82.18;98498.92;209373;1316;141924;-73
2022/01/06 05:01:04;;;;;;;5.40;3.30;;;;;;;2.52;82.71;98509.66;208719;1316;140193;-69
2022/01/06 05:06:07;;;;;;;3.80;3.50;;;;;;;2.55;82.62;98509.35;208148;1316;138995;-68
2022/01/06 05:11:09;;;;;;;5.20;4.70;;;;;;;2.57;82.65;98505.98;208194;1317;140850;-68
2022/01/06 05:16:14;;;;;;;4.60;4.20;;;;;;;2.59;82.46;98505.08;207306;1316;139958;-69
2022/01/06 05:21:20;;;;;;;10.50;4.70;;;;;;;2.56;82.78;98500.80;207922;1317;140358;-71
2022/01/06 05:26:23;;;;;;;5.60;4.70;;;;;;;2.51;82.56;98492.22;207027;1316;140939;-72
2022/01/06 05:31:26;;;;;;;3.80;3.50;;;;;;;2.49;82.69;98496.73;207481;1318;143025;-76
2022/01/06 05:36:29;;;;;;;3.60;3.30;;;;;;;2.40;82.26;98495.01;207069;1318;140404;-75
2022/01/06 05:41:34;;;;;;;3.60;3.30;;;;;;;2.24;82.19;98514.00;207133;1318;206547;-69
2022/01/06 05:46:37;;;;;;;4.20;3.40;;;;;;;2.11;82.59;98524.02;207698;1317;140647;-73
2022/01/06 05:51:41;;;;;;;14.70;7.20;;;;;;;2.05;82.77;98532.10;207172;1317;379696;-70
2022/01/06 05:56:44;;;;;;;4.90;3.50;;;;;;;2.03;82.65;98535.67;206843;1315;140649;-71
2022/01/06 06:01:56;;;;;;;3.90;3.10;;;;;;;2.02;82.86;98540.20;207966;1316;140499;-67
2022/01/06 06:07:00;;;;;;;5.40;4.30;;;;;;;1.98;82.95;98546.27;206917;1316;142029;-66
2022/01/06 06:12:06;;;;;;;4.10;3.50;;;;;;;2.00;83.32;98551.33;207796;1317;140448;-67
2022/01/06 06:17:09;;;;;;;6.30;3.80;;;;;;;2.05;83.11;98561.70;208017;1316;141833;-68
2022/01/06 06:22:12;;;;;;;4.50;4.00;;;;;;;2.10;83.07;98569.85;207554;1316;140804;-68
2022/01/06 06:27:14;;;;;;;3.50;3.10;;;;;;;2.16;83.07;98586.03;207906;1316;141945;-67
2022/01/06 06:32:17;;;;;;;4.90;2.90;;;;;;;2.18;82.96;98606.27;208072;1316;140401;-74
2022/01/06 06:37:23;;;;;;;6.50;3.20;;;;;;;2.14;82.74;98629.64;207652;1318;140217;-72
2022/01/06 06:42:28;;;;;;;6.90;2.20;;;;;;;2.08;82.58;98646.25;208337;1316;140553;-71
2022/01/06 06:47:32;;;;;;;1.90;1.80;;;;;;;2.00;82.23;98657.88;208670;1316;141146;-73
2022/01/06 06:52:37;;;;;;;2.70;1.30;;;;;;;1.92;82.06;98664.75;209091;1317;141061;-74
2022/01/06 06:57:40;;;;;;;1.60;1.00;;;;;;;1.89;82.10;98672.23;209633;1316;141355;-73
2022/01/06 07:02:43;;;;;;;1.50;1.20;;;;;;;1.87;81.87;98683.23;207587;1316;140717;-71
2022/01/06 07:08:07;;;;;;;5.40;2.20;;;;;;;1.89;81.71;98685.38;208976;1316;139939;-70
2022/01/06 07:13:09;;;;;;;2.70;2.50;;;;;;;1.91;81.70;98689.17;208182;1317;139848;-78
2022/01/06 07:18:21;;;;;;;3.20;1.60;;;;;;;1.91;81.14;98692.20;207080;1316;140032;-75
2022/01/06 07:23:24;;;;;;;9.20;2.70;;;;;;;1.88;81.12;98706.00;207185;1318;221519;-72
2022/01/06 07:28:28;;;;;;;3.70;2.80;;;;;;;1.80;81.01;98709.05;208662;1316;139280;-76
2022/01/06 07:33:33;;;;;;;3.80;2.30;;;;;;;1.74;81.00;98720.77;207790;1316;139203;-76
2022/01/06 07:38:36;;;;;;;4.30;1.80;;;;;;;1.70;81.11;98727.04;207432;1316;140074;-71
2022/01/06 07:43:38;;;;;;;5.50;3.20;;;;;;;1.64;81.22;98728.48;207852;1316;140814;-70
2022/01/06 07:48:55;;;;;;;5.60;2.70;;;;;;;1.62;81.24;98727.39;206908;1316;139966;-69
2022/01/06 07:53:59;;;;;;;2.80;2.40;;;;;;;1.58;81.41;98730.86;206956;1316;139925;-69
2022/01/06 07:59:11;;;;;;;6.80;1.80;;;;;;;1.60;81.66;98747.39;207594;1316;139574;-69
2022/01/06 08:04:17;;;;;;;2.70;1.80;;;;;;;1.64;81.22;98754.75;206895;1316;139693;-68
2022/01/06 08:09:38;;;;;;;;;;;;;;;;;;;;;
2022/01/06 08:14:42;;;;;;;3.90;2.50;;;;;;;1.74;81.15;98765.64;208497;1318;139158;-69
2022/01/06 08:19:48;;;;;;;6.60;2.90;;;;;;;1.72;80.79;98773.52;206725;1318;140678;-67
2022/01/06 08:24:58;;;;;;;3.60;2.00;;;;;;;1.72;80.71;98787.50;208392;1316;141232;-70
2022/01/06 08:30:15;;;;;;;;;;;;;;;;;;;;;
2022/01/06 08:35:18;;;;;;;3.80;1.90;;;;;;;1.71;80.71;98798.86;206821;1318;140092;-74
2022/01/06 08:40:21;;;;;;;4.70;2.40;;;;;;;1.68;80.33;98807.38;206825;1315;139319;-72
2022/01/06 08:45:23;;;;;;;6.90;2.60;;;;;;;1.75;80.46;98810.84;206446;1318;139742;-70
2022/01/06 08:50:30;;;;;;;5.40;2.50;;;;;;;1.80;80.38;98815.61;208512;1318;151152;-74
2022/01/06 08:55:47;;;;;;;4.20;2.60;;;;;;;1.80;80.43;98821.42;208543;1319;141939;-73
2022/01/06 09:00:58;;;;;;;4.50;2.00;;;;;;;1.80;80.48;98830.84;209009;1316;139290;-72
2022/01/06 09:06:01;;;;;;;3.80;3.00;;;;;;;1.77;79.81;98836.46;209153;1316;139886;-74
2022/01/06 09:11:05;;;;;;;5.20;2.20;;;;;;;1.74;79.84;98849.34;208381;1315;140374;-69
2022/01/06 09:16:09;;;;;;;5.90;3.10;;;;;;;1.65;79.90;98855.35;209012;1316;140346;-69
2022/01/06 09:21:15;;;;;;;10.50;4.40;;;;;;;1.57;79.76;98862.03;207498;1316;140710;-69
2022/01/06 09:26:20;;;;;;;4.50;2.80;;;;;;;1.55;80.17;98866.63;208448;1316;140219;-70
2022/01/06 09:31:33;;;;;;;6.90;3.90;;;;;;;1.52;80.38;98868.77;207564;1316;139164;-73
2022/01/06 09:36:38;;;;;;;5.10;3.30;;;;;;;1.46;80.48;98871.71;209013;1316;138893;-72
2022/01/06 09:41:45;;;;;;;4.60;2.80;;;;;;;1.48;80.53;98882.91;207812;1316;140734;-72
2022/01/06 09:47:07;;;;;;;;;;;;;;;;;;;;;
2022/01/06 09:52:34;;;;;;;7.10;4.00;;;;;;;1.44;80.79;98888.55;206762;1318;140157;-69
2022/01/06 09:57:36;;;;;;;6.40;4.20;;;;;;;1.42;80.68;98893.75;207856;1317;140807;-68
2022/01/06 10:03:10;;;;;;;;;;;;;;;;;;;;;
2022/01/06 10:08:28;;;;;;;4.40;2.90;;;;;;;1.36;81.00;98917.76;207356;1318;139892;-69
2022/01/06 10:13:32;;;;;;;3.20;2.40;;;;;;;1.29;80.55;98935.25;208386;1316;139932;-70
2022/01/06 10:18:37;;;;;;;4.80;2.30;;;;;;;1.32;80.34;98942.55;207318;1317;140787;-69
2022/01/06 10:23:57;;;;;;;5.00;2.50;;;;;;;1.31;80.11;98950.61;207028;1316;141456;-67
2022/01/06 10:29:08;;;;;;;3.00;2.20;;;;;;;1.31;80.01;98967.25;207652;1318;141836;-68
2022/01/06 10:34:11;;;;;;;4.50;2.70;;;;;;;1.26;79.47;98985.01;207595;1315;140370;-67
2022/01/06 10:39:15;;;;;;;3.20;1.60;;;;;;;1.11;79.66;98999.25;207606;1315;141878;-67
2022/01/06 10:44:20;;;;;;;1.70;1.60;;;;;;;1.14;79.68;99014.38;207009;1315;139795;-69
2022/01/06 10:49:22;;;;;;;1.20;1.10;;;;;;;1.21;79.53;99019.83;207413;1315;140036;-68
2022/01/06 10:54:34;;;;;;;3.10;1.70;;;;;;;1.23;79.25;99026.34;207479;1315;139728;-67
2022/01/06 10:59:38;;;;;;;2.70;0.90;;;;;;;1.25;78.72;99025.98;206715;1316;140955;-68
2022/01/06 11:04:42;;;;;;;4.60;2.60;;;;;;;1.19;78.15;99034.27;209101;1316;139715;-70
2022/01/06 11:09:48;;;;;;;2.60;2.30;;;;;;;1.15;78.44;99040.55;208832;1316;139907;-70
2022/01/06 11:14:59;;;;;;;1.60;1.50;;;;;;;1.18;77.49;99050.07;209630;1316;144245;-73
2022/01/06 11:20:04;;;;;;;4.50;1.80;;;;;;;1.22;77.36;99059.58;208072;1316;140945;-70
2022/01/06 11:25:07;;;;;;;7.00;1.60;;;;;;;1.15;76.89;99064.14;209003;1317;139738;-69
2022/01/06 11:30:15;;;;;;;3.00;1.50;;;;;;;1.03;76.10;99079.58;208268;1316;141115;-68
2022/01/06 11:35:22;;;;;;;5.40;2.60;;;;;;;0.97;76.08;99087.64;207578;1315;139876;-70
2022/01/06 11:40:38;;;;;;;2.70;2.20;;;;;;;0.94;76.33;99099.04;208561;1315;141595;-68
2022/01/06 11:45:44;;;;;;;1.90;1.60;;;;;;;0.95;75.91;99106.52;206979;1317;140138;-67
2022/01/06 11:50:48;;;;;;;4.60;2.80;;;;;;;0.99;75.59;99110.84;208478;1316;142140;-67
2022/01/06 11:55:51;;;;;;;3.80;1.70;;;;;;;0.86;74.98;99113.86;207524;1315;140892;-68
2022/01/06 12:00:57;;;;;;;4.30;1.80;;;;;;;0.67;75.13;99114.67;207134;1316;140127;-67
2022/01/06 12:06:06;;;;;;;3.90;1.50;;;;;;;0.64;75.11;99116.91;208376;1315;143102;-67
2022/01/06 12:11:23;;;;;;;3.70;2.00;;;;;;;0.71;74.85;99127.15;207442;1316;140420;-71
2022/01/06 12:16:28;;;;;;;1.80;1.10;;;;;;;0.70;74.12;99134.25;207153;1316;140335;-74
2022/01/06 12:21:33;;;;;;;1.00;0.80;;;;;;;0.65;73.37;99153.15;207245;1317;141537;-70
2022/01/06 12:26:37;;;;;;;0.80;0.80;;;;;;;0.61;73.34;99162.04;206896;1318;141485;-66
2022/01/06 12:31:42;;;;;;;5.50;1.80;;;;;;;0.53;73.10;99168.61;207080;1316;140680;-66
2022/01/06 12:36:46;;;;;;;3.50;2.00;;;;;;;0.55;73.23;99168.79;208340;1316;139632;-67
2022/01/06 12:41:51;;;;;;;5.40;1.70;;;;;;;0.55;73.04;99179.97;208205;1316;141607;-69
2022/01/06 12:46:57;;;;;;;4.50;1.80;;;;;;;0.52;73.00;99184.70;208303;1316;139197;-70
2022/01/06 12:52:01;;;;;;;4.50;1.40;;;;;;;0.46;72.97;99191.75;207192;1316;159461;-70
2022/01/06 12:57:06;;;;;;;1.10;1.00;;;;;;;0.40;72.85;99218.42;207572;1316;139918;-72
2022/01/06 13:02:12;;;;;;;1.40;0.60;;;;;;;0.08;73.82;99235.70;208333;1317;139826;-70
2022/01/06 13:07:17;;;;;;;4.60;1.40;;;;;;;-0.24;74.29;99234.27;207671;1319;140909;-71
2022/01/06 13:12:23;;;;;;;3.60;1.10;;;;;;;-0.37;74.59;99246.92;208870;1314;141745;-67
2022/01/06 13:17:29;;;;;;;2.20;1.90;;;;;;;-0.38;74.95;99250.98;208751;1320;140528;-68
2022/01/06 13:28:01;;;;;;;2.20;1.30;;;;;;;-0.45;74.98;99258.83;209275;1316;140989;-68
2022/01/06 13:33:15;;;;;;;4.00;2.70;;;;;;;-0.49;74.89;99265.05;207745;1319;140755;-68
2022/01/06 13:38:27;;;;;;;2.60;1.70;;;;;;;-0.46;75.25;99273.73;207942;1316;140456;-67
2022/01/06 13:43:32;;;;;;;4.10;1.80;;;;;;;-0.41;75.30;99281.05;208805;1316;140503;-71
2022/01/06 13:51:04;;;;;;;2.60;1.90;;;;;;;-0.41;75.19;99292.75;207019;1316;152821;-69
2022/01/06 13:54:30;;;;;;;6.70;2.30;;;;;;;-0.37;75.05;99302.77;207722;1318;434089;-66
2022/01/06 13:59:35;;;;;;;3.10;2.00;;;;;;;-0.40;75.07;99311.14;207910;1317;140421;-68
2022/01/06 14:04:46;;;;;;;6.00;2.70;;;;;;;-0.41;75.56;99320.47;207303;1316;142322;-67
2022/01/06 14:09:49;;;;;;;9.00;1.80;;;;;;;-0.43;75.43;99329.94;207120;1316;151783;-66
2022/01/06 14:14:52;;;;;;;6.10;2.50;;;;;;;-0.45;75.27;99331.42;207710;1317;140314;-67
2022/01/06 14:19:58;;;;;;;3.10;1.60;;;;;;;-0.52;75.16;99339.77;207187;1315;140376;-70
2022/01/06 14:25:01;;;;;;;2.20;2.00;;;;;;;-0.55;75.33;99351.89;206946;1316;139820;-67
2022/01/06 14:30:06;;;;;;;4.30;2.40;;;;;;;-0.57;75.21;99361.39;207004;1316;139796;-64
2022/01/06 14:35:24;;;;;;;3.00;1.90;;;;;;;-0.57;75.00;99367.35;207200;1316;141675;-65
2022/01/06 14:40:30;;;;;;;7.70;3.00;;;;;;;-0.60;75.26;99377.85;206864;1319;152036;-69
2022/01/06 14:45:52;;;;;;;2.90;1.60;;;;;;;-0.67;75.28;99391.18;207441;1316;140600;-68
2022/01/06 14:50:57;;;;;;;6.30;2.80;;;;;;;-0.71;75.44;99394.80;207236;1316;140127;-65
2022/01/06 14:56:02;;;;;;;6.20;2.50;;;;;;;-0.67;75.35;99407.64;206935;1318;141017;-64
2022/01/06 15:01:10;;;;;;;3.10;1.80;;;;;;;-0.69;75.54;99413.73;208308;1316;141508;-67
2022/01/06 15:06:16;;;;;;;3.80;2.30;;;;;;;-0.78;75.80;99430.80;207505;1316;141500;-67
2022/01/06 15:11:29;;;;;;;5.70;2.00;;;;;;;-0.85;76.06;99449.69;207160;1317;141129;-66
2022/01/06 15:16:31;;;;;;;8.90;2.70;;;;;;;-0.85;76.03;99459.44;207277;1315;141340;-70
2022/01/06 15:21:37;;;;;;;3.00;2.70;;;;;;;-0.84;76.37;99474.39;208810;1313;159618;-72
2022/01/06 15:26:47;;;;;;;2.90;2.00;;;;;;;-0.88;76.26;99489.14;209102;1316;141067;-71
2022/01/06 15:32:04;;;;;;;5.40;3.40;;;;;;;-0.88;76.28;99497.29;208645;1316;140818;-74
2022/01/06 15:37:19;;;;;;;4.20;2.80;;;;;;;-0.84;76.62;99505.20;208866;1316;140445;-67
2022/01/06 15:42:22;;;;;;;8.80;3.70;;;;;;;-0.86;76.69;99513.35;209126;1316;140516;-68
2022/01/06 15:47:42;;;;;;;3.00;2.40;;;;;;;-0.84;76.68;99523.27;207569;1316;141350;-65
2022/01/06 15:53:28;;;;;;;3.30;2.10;;;;;;;-0.80;76.65;99528.75;208457;1316;141592;-73
2022/01/06 15:58:37;;;;;;;3.70;1.90;;;;;;;-0.87;76.87;99548.68;207254;1316;141698;-71
2022/01/06 16:09:05;;;;;;;4.40;2.60;;;;;;;-0.96;77.27;99558.73;207232;1315;143174;-69
2022/01/06 16:14:08;;;;;;;9.50;4.20;;;;;;;-0.92;77.42;99566.36;207075;1316;141340;-68
2022/01/06 16:19:17;;;;;;;6.50;3.80;;;;;;;-0.88;77.48;99571.05;207429;1316;226775;-71
2022/01/06 16:24:22;;;;;;;6.20;4.40;;;;;;;-0.88;77.53;99580.70;206946;1316;143314;-74
2022/01/06 16:29:30;;;;;;;6.50;2.80;;;;;;;-0.88;77.63;99591.33;207306;1316;140525;-69
2022/01/06 16:34:36;;;;;;;16.70;7.50;;;;;;;-0.87;77.49;99602.26;207474;1316;141281;-69
2022/01/06 16:39:45;;;;;;;8.80;6.20;;;;;;;-0.87;77.34;99610.27;206848;1316;141240;-68
2022/01/06 16:44:48;;;;;;;4.90;3.40;;;;;;;-0.89;77.41;99623.91;207465;1316;140913;-66
2022/01/06 16:49:59;;;;;;;4.50;2.60;;;;;;;-0.91;77.54;99635.09;206633;1316;140827;-67
2022/01/06 16:55:08;;;;;;;3.60;3.20;;;;;;;-0.93;77.59;99634.49;206825;1316;151288;-70
2022/01/06 17:00:12;;;;;;;5.10;2.50;;;;;;;-0.92;77.13;99642.97;208372;1316;140850;-72
2022/01/06 17:05:16;;;;;;;6.50;1.70;;;;;;;-0.91;77.07;99657.05;209198;1315;140530;-73
2022/01/06 17:10:22;;;;;;;6.50;2.50;;;;;;;-0.90;77.05;99668.89;208754;1316;140489;-70
2022/01/06 17:15:26;;;;;;;5.00;2.30;;;;;;;-0.94;76.82;99681.37;207587;1317;141104;-70
2022/01/06 17:20:33;;;;;;;5.50;2.90;;;;;;;-0.92;76.85;99695.39;207654;1318;140124;-74
2022/01/06 17:25:36;;;;;;;12.40;3.00;;;;;;;-0.88;76.99;99709.14;208476;1319;140194;-70
2022/01/06 17:30:54;;;;;;;4.70;2.80;;;;;;;-0.90;76.90;99722.42;209113;1316;140371;-77
2022/01/06 17:36:06;;;;;;;3.10;2.30;;;;;;;-0.88;76.91;99728.84;208150;1316;143110;-72
2022/01/06 17:41:11;;;;;;;4.20;2.50;;;;;;;-0.88;76.71;99737.51;209004;1316;141704;-74
2022/01/06 17:46:46;;;;;;;9.30;5.70;;;;;;;-0.88;76.85;99747.26;207702;1315;141470;-71
2022/01/06 17:51:53;;;;;;;4.20;2.10;;;;;;;-0.85;76.94;99753.61;207638;1317;141377;-73
2022/01/06 17:56:57;;;;;;;6.10;2.80;;;;;;;-0.87;76.71;99759.58;207811;1317;141204;-69
2022/01/06 18:02:13;;;;;;;6.10;2.90;;;;;;;-0.93;76.67;99764.63;208344;1316;140731;-76
2022/01/06 18:07:27;;;;;;;5.00;2.20;;;;;;;-0.97;76.58;99776.17;207492;1316;140763;-77
2022/01/06 18:12:31;;;;;;;3.70;1.50;;;;;;;-0.97;76.09;99786.97;207817;1317;141037;-69
2022/01/06 18:17:36;;;;;;;2.90;1.70;;;;;;;-1.00;76.04;99796.21;208346;1318;140071;-78
2022/01/06 18:22:51;;;;;;;4.20;2.20;;;;;;;-1.02;75.72;99806.54;206875;1316;139518;-75
2022/01/06 18:28:00;;;;;;;2.20;1.20;;;;;;;-1.08;75.13;99820.54;207766;1316;140260;-70
2022/01/06 18:33:04;;;;;;;2.30;1.90;;;;;;;-1.13;74.83;99833.04;207500;1315;140605;-70
2022/01/06 18:38:16;;;;;;;2.90;1.30;;;;;;;-1.18;74.56;99844.75;206664;1316;141473;-69
2022/01/06 18:43:32;;;;;;;3.20;2.80;;;;;;;-1.23;74.69;99848.83;207062;1316;140167;-72
2022/01/06 18:48:58;;;;;;;1.90;0.80;;;;;;;-1.28;74.49;99863.06;207438;1315;141592;-71
2022/01/06 18:54:04;;;;;;;5.70;2.60;;;;;;;-1.28;74.23;99873.77;207587;1316;140441;-72
2022/01/06 18:59:10;;;;;;;11.10;4.20;;;;;;;-1.35;74.20;99880.86;208245;1315;140404;-73
2022/01/06 19:04:15;;;;;;;5.10;1.90;;;;;;;-1.39;74.28;99888.81;207571;1316;142100;-69
2022/01/06 19:09:31;;;;;;;5.50;4.30;;;;;;;-1.45;74.44;99894.91;207326;1316;141071;-72
2022/01/06 19:15:01;;;;;;;2.70;2.20;;;;;;;-1.46;74.56;99909.02;207508;1316;141021;-70
2022/01/06 19:20:09;;;;;;;5.90;2.70;;;;;;;-1.45;74.58;99920.21;208420;1317;142453;-72
2022/01/06 19:25:23;;;;;;;6.30;2.50;;;;;;;-1.43;74.85;99927.35;208097;1319;140688;-71
2022/01/06 19:30:32;;;;;;;8.50;2.70;;;;;;;-1.48;74.59;99922.23;209091;1317;141653;-73
2022/01/06 19:36:02;;;;;;;3.70;2.40;;;;;;;-1.55;74.56;99925.15;208959;1315;140786;-70
2022/01/06 19:41:26;;;;;;;6.50;3.70;;;;;;;-1.63;74.70;99932.04;209392;1318;140664;-68
2022/01/06 19:46:32;;;;;;;5.80;4.10;;;;;;;-1.69;74.34;99932.94;208028;1318;141021;-70
2022/01/06 19:51:44;;;;;;;7.10;3.70;;;;;;;-1.71;74.27;99938.48;207653;1316;140099;-69
2022/01/06 19:56:48;;;;;;;6.30;3.30;;;;;;;-1.76;74.56;99946.47;208663;1315;139701;-68
2022/01/06 20:01:54;;;;;;;7.10;3.50;;;;;;;-1.80;74.73;99950.20;209253;1318;139512;-70
2022/01/06 20:06:59;;;;;;;5.30;2.70;;;;;;;-1.85;74.81;99957.11;208084;1318;139800;-69
2022/01/06 20:12:05;;;;;;;11.90;3.20;;;;;;;-1.91;74.72;99968.83;206981;1316;141175;-68
2022/01/06 20:17:10;;;;;;;8.80;4.00;;;;;;;-2.00;74.57;99975.31;207803;1315;141034;-67
2022/01/06 20:22:14;;;;;;;8.00;2.80;;;;;;;-2.04;74.72;99978.86;207826;1313;161955;-68
2022/01/06 20:27:21;;;;;;;5.10;2.70;;;;;;;-2.10;74.85;99990.33;206869;1316;140399;-68
2022/01/06 20:32:25;;;;;;;8.20;4.60;;;;;;;-2.16;75.10;99995.34;206951;1316;139232;-73
2022/01/06 20:37:29;;;;;;;3.40;2.20;;;;;;;-2.23;75.02;100000.68;207061;1315;139663;-68
2022/01/06 20:42:32;;;;;;;62.40;28.60;;;;;;;-2.33;75.16;100004.80;206903;1315;158885;-73
2022/01/06 20:52:48;;;;;;;12.50;6.60;;;;;;;-2.33;75.53;100013.70;207698;1318;140743;-71
2022/01/06 20:57:53;;;;;;;12.10;10.00;;;;;;;-2.37;75.47;100020.15;207114;1318;140366;-66
2022/01/06 21:03:03;;;;;;;11.90;6.20;;;;;;;-2.44;75.37;100025.27;207940;1316;140882;-68
2022/01/06 21:08:14;;;;;;;11.30;6.10;;;;;;;-2.49;75.52;100027.14;207205;1315;143014;-68
2022/01/06 21:13:21;;;;;;;8.70;4.80;;;;;;;-2.53;75.64;100024.08;207990;1316;140332;-69
2022/01/06 21:18:24;;;;;;;9.80;6.20;;;;;;;-2.51;75.46;100025.99;207897;1316;140690;-72
2022/01/06 21:23:30;;;;;;;15.60;6.90;;;;;;;-2.52;75.42;100027.18;207814;1317;140060;-72
2022/01/06 21:28:38;;;;;;;17.20;6.20;;;;;;;-2.53;75.60;100031.41;208517;1314;140545;-74
2022/01/06 21:33:48;;;;;;;13.70;5.10;;;;;;;-2.55;75.64;100039.02;208495;1317;141106;-69
2022/01/06 21:38:52;;;;;;;9.90;4.60;;;;;;;-2.57;75.59;100042.77;207829;1318;140628;-69
2022/01/06 21:43:59;;;;;;;11.60;6.10;;;;;;;-2.61;75.62;100048.36;209648;1316;140424;-71
2022/01/06 21:49:07;;;;;;;18.00;6.60;;;;;;;-2.65;75.82;100060.86;207152;1316;142304;-70
2022/01/06 21:54:14;;;;;;;8.10;3.40;;;;;;;-2.69;75.77;100067.72;208673;1312;815135;-71
2022/01/06 21:59:18;;;;;;;14.60;5.40;;;;;;;-2.71;75.56;100076.04;208723;1322;141302;-73
2022/01/06 22:04:21;;;;;;;6.10;3.60;;;;;;;-2.69;75.59;100092.41;209299;1315;141233;-72
2022/01/06 22:09:27;;;;;;;6.60;4.00;;;;;;;-2.72;75.61;100095.73;207731;1315;140971;-72
2022/01/06 22:14:33;;;;;;;12.30;5.30;;;;;;;-2.74;75.65;100101.86;208908;1317;141695;-74
2022/01/06 22:19:38;;;;;;;6.30;3.30;;;;;;;-2.79;75.58;100105.63;207212;1317;141655;-70
2022/01/06 22:24:45;;;;;;;8.40;3.60;;;;;;;-2.85;75.81;100107.48;207610;1316;142698;-69
2022/01/06 22:29:54;;;;;;;7.20;3.30;;;;;;;-2.93;75.84;100114.26;207741;1315;140502;-69
2022/01/06 22:35:03;;;;;;;5.80;2.90;;;;;;;-2.96;75.55;100118.02;207409;1315;164646;-68
2022/01/06 22:40:12;;;;;;;7.80;3.80;;;;;;;-3.05;75.51;100122.84;207485;1318;141217;-71
2022/01/06 22:45:20;;;;;;;12.20;4.60;;;;;;;-3.14;75.85;100134.71;206931;1317;139523;-71
2022/01/06 22:50:34;;;;;;;12.50;5.50;;;;;;;-3.16;76.08;100135.12;207635;1317;140198;-72
2022/01/06 22:55:43;;;;;;;5.70;4.10;;;;;;;-3.21;76.14;100133.79;207270;1316;140543;-69
2022/01/06 23:00:51;;;;;;;9.00;4.00;;;;;;;-3.28;76.21;100138.44;207813;1316;140857;-75
2022/01/06 23:06:17;;;;;;;9.90;3.60;;;;;;;-3.31;76.22;100145.88;208090;1318;142498;-71
2022/01/06 23:11:28;;;;;;;6.50;3.40;;;;;;;-3.32;76.31;100153.39;207250;1315;151311;-70
2022/01/06 23:16:33;;;;;;;7.20;3.40;;;;;;;-3.36;76.41;100155.52;207674;1317;141340;-71
2022/01/06 23:21:46;;;;;;;9.10;4.00;;;;;;;-3.42;76.66;100153.62;206986;1316;139848;-70
2022/01/06 23:26:49;;;;;;;9.50;4.40;;;;;;;-3.46;76.68;100152.79;206963;1315;141996;-68
2022/01/06 23:31:55;;;;;;;40.90;15.90;;;;;;;-3.53;76.55;100158.41;207339;1318;139957;-69
2022/01/06 23:36:59;;;;;;;20.50;6.50;;;;;;;-3.54;76.57;100153.77;207690;1316;140981;-70
2022/01/06 23:42:02;;;;;;;12.20;8.80;;;;;;;-3.57;76.77;100154.10;207744;1315;141538;-67
2022/01/06 23:47:05;;;;;;;16.40;7.20;;;;;;;-3.61;76.66;100160.52;208177;1316;139915;-67
2022/01/06 23:52:08;;;;;;;12.20;6.60;;;;;;;-3.64;77.06;100167.89;207385;1318;139640;-67
2022/01/06 23:57:14;;;;;;;10.90;5.40;;;;;;;-3.67;77.06;100173.70;209059;1315;141070;-67
